Time;durP1;ratioP1;P1;durP2;ratioP2;P2;SDS_P1;SDS_P2;PMS_P1;PMS_P2;Temp;Humidity;BMP_temperature;BMP_pressure;BME280_temperature;BME280_humidity;BME280_pressure;Samples;Min_cycle;Max_cycle;Signal;HPM_P1;HPM_P2
2023/10/27 00:01:33;;;;;;;14.15;9.50;;;;;;;;;;4994779;28;20042;-70
2023/10/27 00:03:59;;;;;;;11.60;8.65;;;;;;;;;;4976856;28;20049;-70
2023/10/27 00:06:24;;;;;;;12.75;8.50;;;;;;;;;;4994953;28;20026;-69
2023/10/27 00:08:50;;;;;;;13.90;8.13;;;;;;;;;;4994877;28;20041;-69
2023/10/27 00:11:15;;;;;;;13.18;8.02;;;;;;;;;;4994469;28;20015;-69
2023/10/27 00:13:41;;;;;;;12.70;8.30;;;;;;;;;;4994577;28;20034;-70
2023/10/27 00:16:10;;;;;;;11.85;7.65;;;;;;;;;;4977214;28;20041;-69
2023/10/27 00:18:35;;;;;;;14.23;8.25;;;;;;;;;;4994708;28;20042;-69
2023/10/27 00:21:01;;;;;;;12.75;8.50;;;;;;;;;;4995341;28;20077;-69
2023/10/27 00:23:26;;;;;;;11.88;8.52;;;;;;;;;;4994647;28;20038;-69
2023/10/27 00:25:52;;;;;;;11.80;7.95;;;;;;;;;;4994575;28;20414;-69
2023/10/27 00:28:17;;;;;;;12.80;7.38;;;;;;;;;;4977791;28;20037;-69
2023/10/27 00:30:43;;;;;;;12.38;7.82;;;;;;;;;;4977031;28;20121;-69
2023/10/27 00:33:08;;;;;;;11.45;7.45;;;;;;;;;;4994613;28;20088;-69
2023/10/27 00:35:34;;;;;;;9.90;7.55;;;;;;;;;;4994351;28;20034;-69
2023/10/27 00:38:00;;;;;;;10.60;7.47;;;;;;;;;;4994653;28;20076;-69
2023/10/27 00:40:25;;;;;;;10.73;8.02;;;;;;;;;;4995219;28;20121;-69
2023/10/27 00:42:51;;;;;;;13.02;7.68;;;;;;;;;;4976716;28;20134;-69
2023/10/27 00:45:16;;;;;;;14.23;8.13;;;;;;;;;;4994502;28;20133;-69
2023/10/27 00:47:42;;;;;;;11.88;7.95;;;;;;;;;;4976745;28;20034;-69
2023/10/27 00:50:07;;;;;;;13.30;8.25;;;;;;;;;;4994531;28;20026;-69
2023/10/27 00:52:34;;;;;;;11.27;7.70;;;;;;;;;;4976811;28;20111;-69
2023/10/27 00:54:59;;;;;;;12.90;8.10;;;;;;;;;;4994651;28;20096;-69
2023/10/27 00:57:27;;;;;;;10.50;7.35;;;;;;;;;;4994095;28;20054;-69
2023/10/27 00:59:53;;;;;;;9.93;7.18;;;;;;;;;;4994341;28;20061;-69
2023/10/27 01:02:21;;;;;;;8.70;6.97;;;;;;;;;;4995921;28;20386;-69
2023/10/27 01:04:46;;;;;;;9.07;6.65;;;;;;;;;;4998178;28;20037;-69
2023/10/27 01:07:12;;;;;;;12.20;7.00;;;;;;;;;;4980581;28;20027;-69
2023/10/27 01:09:37;;;;;;;8.73;6.88;;;;;;;;;;4997589;28;20023;-69
2023/10/27 01:12:03;;;;;;;10.88;6.95;;;;;;;;;;4998226;28;20137;-69
2023/10/27 01:14:28;;;;;;;10.45;6.75;;;;;;;;;;4997846;28;20029;-69
2023/10/27 01:16:56;;;;;;;8.38;6.70;;;;;;;;;;4997473;28;20077;-69
2023/10/27 01:19:22;;;;;;;14.23;7.47;;;;;;;;;;4998154;28;20026;-69
2023/10/27 01:21:47;;;;;;;11.60;6.70;;;;;;;;;;4980949;28;20041;-69
2023/10/27 01:24:12;;;;;;;13.48;6.72;;;;;;;;;;4980511;28;20137;-69
2023/10/27 01:26:38;;;;;;;12.32;6.80;;;;;;;;;;4997850;28;20076;-69
2023/10/27 01:29:03;;;;;;;12.80;6.47;;;;;;;;;;4997786;28;20109;-70
2023/10/27 01:31:29;;;;;;;14.73;7.80;;;;;;;;;;4980229;28;20097;-69
2023/10/27 01:33:54;;;;;;;13.18;8.10;;;;;;;;;;4980407;28;20034;-69
2023/10/27 01:36:19;;;;;;;11.70;7.40;;;;;;;;;;4998049;28;20034;-69
2023/10/27 01:38:45;;;;;;;13.68;7.82;;;;;;;;;;4980165;28;20031;-69
2023/10/27 01:41:10;;;;;;;10.15;7.57;;;;;;;;;;4980010;28;20060;-69
2023/10/27 01:43:47;;;;;;;10.90;7.30;;;;;;;;;;4997433;28;20034;-70
2023/10/27 01:46:12;;;;;;;11.18;7.60;;;;;;;;;;4979999;28;20445;-69
2023/10/27 01:48:42;;;;;;;10.02;7.78;;;;;;;;;;4997416;28;20054;-69
2023/10/27 01:51:07;;;;;;;12.75;7.75;;;;;;;;;;4997490;28;20023;-66
2023/10/27 01:53:36;;;;;;;11.43;7.18;;;;;;;;;;4979843;28;20037;-67
2023/10/27 01:56:02;;;;;;;11.57;7.68;;;;;;;;;;4997391;28;20033;-71
2023/10/27 01:58:29;;;;;;;13.80;8.38;;;;;;;;;;4792889;23;20229;-66
2023/10/27 02:00:55;;;;;;;14.20;8.75;;;;;;;;;;4985324;23;20047;-66
2023/10/27 02:03:20;;;;;;;11.35;8.27;;;;;;;;;;4941635;29;20042;-70
2023/10/27 02:05:47;;;;;;;12.82;8.30;;;;;;;;;;4972379;23;20028;-65
2023/10/27 02:08:13;;;;;;;12.55;8.23;;;;;;;;;;5029754;28;20128;-66
2023/10/27 02:10:38;;;;;;;10.05;7.80;;;;;;;;;;4983506;28;20116;-65
2023/10/27 02:13:04;;;;;;;12.13;8.27;;;;;;;;;;5031720;28;20041;-66
2023/10/27 02:15:29;;;;;;;13.60;7.82;;;;;;;;;;5016867;28;20057;-65
2023/10/27 02:17:55;;;;;;;12.77;7.28;;;;;;;;;;5031700;28;20034;-65
2023/10/27 02:20:20;;;;;;;10.77;7.38;;;;;;;;;;4998795;28;20508;-65
2023/10/27 02:22:46;;;;;;;8.93;7.35;;;;;;;;;;5016327;28;20033;-65
2023/10/27 02:25:12;;;;;;;14.23;7.22;;;;;;;;;;5017089;28;20065;-64
2023/10/27 02:27:41;;;;;;;9.75;7.78;;;;;;;;;;5032192;28;20062;-64
2023/10/27 02:30:07;;;;;;;14.40;7.80;;;;;;;;;;4999653;28;20038;-64
2023/10/27 02:32:33;;;;;;;12.35;7.40;;;;;;;;;;4998637;28;20088;-64
2023/10/27 02:34:58;;;;;;;11.85;7.88;;;;;;;;;;5016257;28;20493;-63
2023/10/27 02:37:25;;;;;;;10.50;7.32;;;;;;;;;;5031307;28;20481;-63
2023/10/27 02:39:50;;;;;;;8.85;6.85;;;;;;;;;;5016087;28;20503;-63
2023/10/27 02:42:16;;;;;;;10.60;7.18;;;;;;;;;;5016047;28;20034;-63
2023/10/27 02:44:41;;;;;;;11.23;7.18;;;;;;;;;;5015958;28;20032;-63
2023/10/27 02:47:07;;;;;;;8.68;7.47;;;;;;;;;;5016222;28;20018;-63
2023/10/27 02:49:32;;;;;;;10.07;7.40;;;;;;;;;;5016231;28;20034;-63
2023/10/27 02:51:57;;;;;;;12.98;7.00;;;;;;;;;;5016093;28;20109;-63
2023/10/27 02:54:23;;;;;;;9.27;7.40;;;;;;;;;;4998256;28;20088;-66
2023/10/27 02:56:48;;;;;;;12.35;6.97;;;;;;;;;;4998587;28;20030;-64
2023/10/27 02:59:14;;;;;;;10.27;7.15;;;;;;;;;;5015865;28;20446;-65
2023/10/27 03:01:39;;;;;;;12.52;7.57;;;;;;;;;;5015671;28;20029;-65
2023/10/27 03:04:04;;;;;;;10.32;7.45;;;;;;;;;;5030786;28;20121;-64
2023/10/27 03:06:30;;;;;;;9.43;7.60;;;;;;;;;;5015423;28;20052;-64
2023/10/27 03:08:55;;;;;;;10.15;6.97;;;;;;;;;;5030715;28;20083;-64
2023/10/27 03:11:21;;;;;;;9.45;6.85;;;;;;;;;;5014392;28;20030;-65
2023/10/27 03:13:46;;;;;;;9.00;6.70;;;;;;;;;;5030816;28;20034;-68
2023/10/27 03:16:16;;;;;;;11.07;6.97;;;;;;;;;;5016084;28;20038;-68
2023/10/27 03:18:41;;;;;;;10.57;7.67;;;;;;;;;;5030792;28;20030;-69
2023/10/27 03:21:07;;;;;;;8.57;6.60;;;;;;;;;;5030495;28;20061;-70
2023/10/27 03:23:32;;;;;;;10.35;7.60;;;;;;;;;;5015495;28;20112;-67
2023/10/27 03:26:01;;;;;;;15.05;8.43;;;;;;;;;;5030256;28;20057;-67
2023/10/27 03:28:26;;;;;;;9.65;7.05;;;;;;;;;;5030636;28;20593;-67
2023/10/27 03:30:52;;;;;;;11.80;7.75;;;;;;;;;;5015633;28;20041;-69
2023/10/27 03:33:17;;;;;;;13.75;7.88;;;;;;;;;;5030387;28;20080;-69
2023/10/27 03:35:43;;;;;;;15.90;8.68;;;;;;;;;;4997718;28;20050;-68
2023/10/27 03:38:09;;;;;;;15.23;9.07;;;;;;;;;;5030564;28;20080;-69
2023/10/27 03:40:36;;;;;;;14.90;9.50;;;;;;;;;;4996654;28;20424;-68
2023/10/27 03:43:01;;;;;;;15.98;8.93;;;;;;;;;;4997650;28;20053;-68
2023/10/27 03:45:27;;;;;;;15.57;8.93;;;;;;;;;;5029900;28;20073;-68
2023/10/27 03:47:53;;;;;;;17.15;9.50;;;;;;;;;;5015453;28;20100;-68
2023/10/27 03:50:18;;;;;;;22.88;10.63;;;;;;;;;;5014747;28;20040;-69
2023/10/27 03:52:43;;;;;;;16.67;9.55;;;;;;;;;;5015125;28;20072;-68
2023/10/27 03:55:11;;;;;;;14.90;9.35;;;;;;;;;;5015036;28;20097;-65
2023/10/27 03:57:38;;;;;;;11.52;8.07;;;;;;;;;;5030587;28;20056;-68
2023/10/27 04:00:07;;;;;;;9.75;7.63;;;;;;;;;;5015101;28;20049;-68
2023/10/27 04:02:37;;;;;;;11.07;7.18;;;;;;;;;;5014713;28;20045;-68
2023/10/27 04:05:06;;;;;;;10.90;7.88;;;;;;;;;;5015091;28;20022;-67
2023/10/27 04:07:31;;;;;;;8.50;6.85;;;;;;;;;;5014538;28;20037;-69
2023/10/27 04:09:57;;;;;;;10.50;7.72;;;;;;;;;;5014388;28;20036;-69
2023/10/27 04:12:22;;;;;;;22.58;10.27;;;;;;;;;;5014778;28;20052;-70
2023/10/27 04:14:48;;;;;;;19.23;9.90;;;;;;;;;;4996349;28;20026;-69
2023/10/27 04:17:14;;;;;;;20.92;9.65;;;;;;;;;;4996869;28;20025;-68
2023/10/27 04:19:39;;;;;;;19.40;9.35;;;;;;;;;;4996774;28;20439;-69
2023/10/27 04:22:05;;;;;;;17.23;9.13;;;;;;;;;;5014810;28;20412;-69
2023/10/27 04:24:30;;;;;;;16.23;9.60;;;;;;;;;;5014827;28;20040;-69
2023/10/27 04:26:56;;;;;;;25.88;11.10;;;;;;;;;;5029868;28;20070;-70
2023/10/27 04:29:22;;;;;;;14.00;9.38;;;;;;;;;;5014954;28;20021;-69
2023/10/27 04:31:47;;;;;;;13.63;9.48;;;;;;;;;;5014600;28;20034;-69
2023/10/27 04:34:13;;;;;;;16.20;9.10;;;;;;;;;;5013871;28;20033;-69
2023/10/27 04:36:38;;;;;;;18.92;10.20;;;;;;;;;;5013129;28;20037;-69
2023/10/27 04:39:04;;;;;;;17.80;9.80;;;;;;;;;;5013972;28;20038;-69
2023/10/27 04:41:30;;;;;;;17.45;9.57;;;;;;;;;;5014395;28;20053;-69
2023/10/27 04:43:56;;;;;;;16.95;10.32;;;;;;;;;;5029215;28;20057;-70
2023/10/27 04:46:21;;;;;;;18.05;10.27;;;;;;;;;;5013990;28;20073;-71
2023/10/27 04:48:47;;;;;;;17.45;9.98;;;;;;;;;;5014271;28;20068;-71
2023/10/27 04:51:12;;;;;;;21.48;10.85;;;;;;;;;;5029634;28;20084;-71
2023/10/27 04:53:37;;;;;;;18.00;9.88;;;;;;;;;;5014121;28;20041;-71
2023/10/27 04:56:03;;;;;;;14.95;8.23;;;;;;;;;;5029538;28;20037;-70
2023/10/27 04:58:29;;;;;;;10.80;6.80;;;;;;;;;;5014274;28;20026;-73
2023/10/27 05:00:54;;;;;;;10.02;7.25;;;;;;;;;;5014183;28;20548;-73
2023/10/27 05:03:19;;;;;;;11.27;7.95;;;;;;;;;;5014232;28;20034;-73
2023/10/27 05:05:45;;;;;;;8.27;6.28;;;;;;;;;;5014189;28;20010;-73
2023/10/27 05:08:10;;;;;;;10.55;7.72;;;;;;;;;;5029046;28;20425;-74
2023/10/27 05:10:36;;;;;;;9.27;7.30;;;;;;;;;;4996412;28;20057;-73
2023/10/27 05:13:03;;;;;;;12.60;7.75;;;;;;;;;;5014426;28;20113;-74
2023/10/27 05:15:28;;;;;;;13.75;8.05;;;;;;;;;;5014622;28;20022;-74
2023/10/27 05:17:54;;;;;;;13.35;8.70;;;;;;;;;;5013936;28;20497;-74
2023/10/27 05:20:19;;;;;;;14.13;7.90;;;;;;;;;;5029351;28;20424;-74
2023/10/27 05:22:45;;;;;;;14.30;8.65;;;;;;;;;;5013528;28;20091;-74
2023/10/27 05:25:11;;;;;;;16.58;10.82;;;;;;;;;;5013647;28;20037;-73
2023/10/27 05:27:36;;;;;;;18.25;11.43;;;;;;;;;;4996313;28;20029;-74
2023/10/27 05:30:02;;;;;;;19.10;10.85;;;;;;;;;;5012559;28;20026;-73
2023/10/27 05:32:29;;;;;;;14.68;9.35;;;;;;;;;;5013817;28;20495;-73
2023/10/27 05:34:55;;;;;;;13.68;8.73;;;;;;;;;;5013660;28;20096;-70
2023/10/27 05:37:21;;;;;;;15.13;9.48;;;;;;;;;;5013517;28;20105;-70
2023/10/27 05:39:47;;;;;;;12.68;8.80;;;;;;;;;;5013288;28;20473;-70
2023/10/27 05:42:13;;;;;;;15.05;9.45;;;;;;;;;;5028539;28;20033;-70
2023/10/27 05:44:41;;;;;;;11.95;8.68;;;;;;;;;;5013450;28;20029;-70
2023/10/27 05:47:06;;;;;;;10.32;7.40;;;;;;;;;;5026736;28;20069;-70
2023/10/27 05:49:34;;;;;;;8.27;6.95;;;;;;;;;;5014398;28;20034;-70
2023/10/27 05:52:02;;;;;;;9.38;6.50;;;;;;;;;;5016097;28;20026;-70
2023/10/27 05:54:28;;;;;;;11.23;8.20;;;;;;;;;;5016013;28;20037;-70
2023/10/27 05:56:54;;;;;;;11.93;8.27;;;;;;;;;;5030885;28;20091;-70
2023/10/27 05:59:21;;;;;;;12.35;8.35;;;;;;;;;;5029552;28;20038;-70
2023/10/27 06:01:48;;;;;;;10.70;8.15;;;;;;;;;;5014459;28;20030;-70
2023/10/27 06:04:17;;;;;;;11.85;8.23;;;;;;;;;;5012621;28;20037;-70
2023/10/27 06:06:42;;;;;;;10.27;7.65;;;;;;;;;;5012427;28;20042;-70
2023/10/27 06:09:08;;;;;;;9.13;7.28;;;;;;;;;;5013809;28;20049;-70
2023/10/27 06:11:34;;;;;;;8.70;7.07;;;;;;;;;;5013864;28;20508;-70
2023/10/27 06:14:00;;;;;;;8.25;6.38;;;;;;;;;;5013925;28;20477;-70
2023/10/27 06:16:25;;;;;;;9.98;6.53;;;;;;;;;;5029652;28;20026;-70
2023/10/27 06:18:54;;;;;;;7.75;6.95;;;;;;;;;;4998965;28;20041;-70
2023/10/27 06:21:20;;;;;;;7.28;6.55;;;;;;;;;;5016276;28;20140;-70
2023/10/27 06:23:45;;;;;;;7.65;6.72;;;;;;;;;;5016602;28;20038;-70
2023/10/27 06:26:11;;;;;;;8.10;6.93;;;;;;;;;;5016345;28;20026;-70
2023/10/27 06:28:36;;;;;;;7.75;6.68;;;;;;;;;;5031660;28;20025;-70
2023/10/27 06:31:02;;;;;;;8.18;6.70;;;;;;;;;;4997151;28;20030;-70
2023/10/27 06:33:28;;;;;;;7.75;6.95;;;;;;;;;;5015620;28;20354;-72
2023/10/27 06:35:55;;;;;;;6.97;5.97;;;;;;;;;;4997961;28;20044;-70
2023/10/27 06:38:21;;;;;;;9.18;7.30;;;;;;;;;;5016428;28;20022;-69
2023/10/27 06:40:47;;;;;;;11.75;8.98;;;;;;;;;;5016476;28;20388;-69
2023/10/27 06:43:12;;;;;;;11.27;9.73;;;;;;;;;;5016376;28;20145;-69
2023/10/27 06:45:38;;;;;;;12.57;9.70;;;;;;;;;;4998740;28;20029;-69
2023/10/27 06:48:03;;;;;;;10.15;8.32;;;;;;;;;;5015938;28;20018;-69
2023/10/27 06:50:29;;;;;;;10.43;8.13;;;;;;;;;;4998751;28;20108;-69
2023/10/27 06:52:54;;;;;;;11.27;8.88;;;;;;;;;;5014984;28;20088;-69
2023/10/27 06:55:20;;;;;;;12.20;9.30;;;;;;;;;;5015776;28;20117;-69
2023/10/27 06:57:45;;;;;;;13.77;11.13;;;;;;;;;;5015902;28;20026;-70
2023/10/27 07:00:12;;;;;;;23.42;18.55;;;;;;;;;;5014743;28;20069;-72
2023/10/27 07:02:37;;;;;;;52.83;37.90;;;;;;;;;;5015513;28;20458;-72
2023/10/27 07:05:05;;;;;;;49.05;35.90;;;;;;;;;;5015858;28;20038;-70
2023/10/27 07:07:30;;;;;;;32.17;25.80;;;;;;;;;;5015673;28;20049;-68
2023/10/27 07:09:56;;;;;;;14.00;11.85;;;;;;;;;;5015454;28;20397;-64
2023/10/27 07:12:21;;;;;;;15.05;11.77;;;;;;;;;;4998272;28;20037;-71
2023/10/27 07:14:47;;;;;;;14.80;11.80;;;;;;;;;;5015255;28;20069;-71
2023/10/27 07:17:12;;;;;;;9.63;8.55;;;;;;;;;;4997577;28;20025;-69
2023/10/27 07:19:38;;;;;;;7.78;6.70;;;;;;;;;;5015167;28;20568;-71
2023/10/27 07:22:04;;;;;;;11.05;9.07;;;;;;;;;;5014487;28;20022;-71
2023/10/27 07:24:32;;;;;;;10.23;8.38;;;;;;;;;;5015153;28;20381;-71
2023/10/27 07:27:00;;;;;;;9.60;8.60;;;;;;;;;;4997491;28;20025;-71
2023/10/27 07:29:25;;;;;;;10.40;8.07;;;;;;;;;;4997887;28;20065;-70
2023/10/27 07:31:51;;;;;;;8.82;7.85;;;;;;;;;;5015188;28;20421;-70
2023/10/27 07:34:16;;;;;;;20.00;12.45;;;;;;;;;;5015465;28;20084;-70
2023/10/27 07:36:41;;;;;;;17.15;11.80;;;;;;;;;;5015167;28;20477;-70
2023/10/27 07:39:07;;;;;;;13.38;10.23;;;;;;;;;;5014488;28;20096;-69
2023/10/27 07:41:34;;;;;;;13.43;10.00;;;;;;;;;;4997705;28;20068;-69
2023/10/27 07:44:00;;;;;;;12.02;10.45;;;;;;;;;;5015156;28;20030;-68
2023/10/27 07:46:26;;;;;;;11.38;9.10;;;;;;;;;;5015325;28;20029;-69
2023/10/27 07:48:51;;;;;;;16.67;13.45;;;;;;;;;;4981446;28;20026;-69
2023/10/27 07:51:16;;;;;;;14.90;12.40;;;;;;;;;;5014265;28;20038;-69
2023/10/27 07:53:42;;;;;;;35.90;28.80;;;;;;;;;;5014762;28;20021;-69
2023/10/27 07:56:08;;;;;;;50.72;40.33;;;;;;;;;;5014681;28;20014;-71
2023/10/27 07:58:34;;;;;;;32.90;27.85;;;;;;;;;;5014500;28;20500;-71
2023/10/27 08:01:01;;;;;;;33.67;29.52;;;;;;;;;;5014186;28;20390;-71
2023/10/27 08:03:28;;;;;;;33.85;27.17;;;;;;;;;;5014560;28;20038;-71
2023/10/27 08:05:53;;;;;;;25.50;21.23;;;;;;;;;;4996616;28;20030;-71
2023/10/27 08:08:19;;;;;;;21.63;13.68;;;;;;;;;;5014379;28;20478;-68
2023/10/27 08:10:46;;;;;;;21.98;15.30;;;;;;;;;;5014525;28;20026;-71
2023/10/27 08:13:12;;;;;;;17.67;12.93;;;;;;;;;;5014389;28;20030;-71
2023/10/27 08:15:38;;;;;;;16.92;11.30;;;;;;;;;;5014309;28;20381;-69
2023/10/27 08:18:04;;;;;;;15.23;11.07;;;;;;;;;;5014071;28;20030;-70
2023/10/27 08:20:30;;;;;;;15.55;11.20;;;;;;;;;;4997243;28;20045;-70
2023/10/27 08:22:56;;;;;;;16.63;10.80;;;;;;;;;;4996524;28;20026;-70
2023/10/27 08:25:22;;;;;;;12.65;9.85;;;;;;;;;;5014384;28;20034;-70
2023/10/27 08:27:51;;;;;;;11.20;8.05;;;;;;;;;;5014375;28;20112;-70
2023/10/27 08:30:17;;;;;;;12.93;8.07;;;;;;;;;;5014041;28;20072;-67
2023/10/27 08:32:42;;;;;;;10.68;7.72;;;;;;;;;;5014002;28;20034;-70
2023/10/27 08:35:09;;;;;;;9.88;8.00;;;;;;;;;;5013704;28;20489;-68
2023/10/27 08:37:35;;;;;;;13.43;8.95;;;;;;;;;;5014081;28;20033;-68
2023/10/27 08:40:01;;;;;;;14.43;9.18;;;;;;;;;;4996768;28;20470;-67
2023/10/27 08:42:32;;;;;;;13.77;7.75;;;;;;;;;;5013561;28;20048;-68
2023/10/27 08:44:58;;;;;;;11.95;8.60;;;;;;;;;;5014262;28;20121;-68
2023/10/27 08:47:25;;;;;;;8.50;7.45;;;;;;;;;;5014142;28;20110;-67
2023/10/27 08:49:50;;;;;;;9.55;7.30;;;;;;;;;;5014048;28;20037;-66
2023/10/27 08:52:16;;;;;;;9.20;6.82;;;;;;;;;;5013845;28;20058;-68
2023/10/27 08:54:41;;;;;;;7.97;6.65;;;;;;;;;;4996648;28;20034;-68
2023/10/27 08:57:08;;;;;;;9.13;6.60;;;;;;;;;;5013855;28;20061;-68
2023/10/27 08:59:35;;;;;;;6.85;6.15;;;;;;;;;;5013974;28;20362;-68
2023/10/27 09:02:01;;;;;;;9.82;7.18;;;;;;;;;;4996376;28;20026;-68
2023/10/27 09:04:26;;;;;;;10.20;7.20;;;;;;;;;;5014139;28;20033;-68
2023/10/27 09:06:52;;;;;;;12.20;7.53;;;;;;;;;;5013394;28;20046;-69
2023/10/27 09:09:19;;;;;;;11.15;7.82;;;;;;;;;;5012651;28;20026;-67
2023/10/27 09:11:48;;;;;;;8.57;6.90;;;;;;;;;;5012218;28;20038;-68
2023/10/27 09:14:19;;;;;;;9.35;6.80;;;;;;;;;;5011685;28;20026;-68
2023/10/27 09:16:45;;;;;;;10.82;6.35;;;;;;;;;;5013296;28;20033;-68
2023/10/27 09:19:17;;;;;;;8.68;6.57;;;;;;;;;;4995917;28;20413;-68
2023/10/27 09:21:44;;;;;;;11.63;6.70;;;;;;;;;;5013740;28;20066;-68
2023/10/27 09:24:10;;;;;;;11.38;8.93;;;;;;;;;;5015980;28;20022;-68
2023/10/27 09:26:49;;;;;;;13.00;10.02;;;;;;;;;;5017136;28;20026;-70
2023/10/27 09:29:15;;;;;;;11.70;8.48;;;;;;;;;;5016980;28;20513;-68
2023/10/27 09:31:42;;;;;;;7.78;7.00;;;;;;;;;;5016986;28;20361;-69
2023/10/27 09:34:24;;;;;;;8.85;7.18;;;;;;;;;;5016554;28;20022;-69
2023/10/27 09:36:51;;;;;;;31.45;22.95;;;;;;;;;;5016890;28;20472;-67
2023/10/27 09:39:22;;;;;;;22.67;17.45;;;;;;;;;;5016684;28;20030;-67
2023/10/27 09:42:08;;;;;;;18.55;16.60;;;;;;;;;;5017291;28;20176;-69
2023/10/27 09:44:39;;;;;;;12.00;10.82;;;;;;;;;;5016865;28;20049;-69
2023/10/27 09:47:09;;;;;;;6.78;6.18;;;;;;;;;;4983076;28;20045;-68
2023/10/27 09:49:36;;;;;;;8.13;7.35;;;;;;;;;;5016798;28;20034;-68
2023/10/27 09:52:04;;;;;;;6.47;5.53;;;;;;;;;;5016768;28;20437;-68
2023/10/27 09:54:31;;;;;;;7.93;5.63;;;;;;;;;;5017065;28;20116;-69
2023/10/27 09:56:57;;;;;;;7.78;5.93;;;;;;;;;;5016998;28;20496;-69
2023/10/27 09:59:23;;;;;;;10.73;9.15;;;;;;;;;;5015444;28;20026;-69
2023/10/27 10:01:48;;;;;;;8.18;7.38;;;;;;;;;;5015444;28;20080;-68
2023/10/27 10:04:14;;;;;;;7.68;6.18;;;;;;;;;;5014347;28;20092;-69
2023/10/27 10:06:43;;;;;;;8.32;6.22;;;;;;;;;;5014695;28;20038;-69
2023/10/27 10:09:09;;;;;;;8.95;8.05;;;;;;;;;;5015529;28;20390;-68
2023/10/27 10:11:37;;;;;;;9.25;8.20;;;;;;;;;;5015236;28;20508;-69
2023/10/27 10:14:04;;;;;;;9.52;8.38;;;;;;;;;;5015908;28;20041;-69
2023/10/27 10:16:42;;;;;;;5.70;5.10;;;;;;;;;;5016046;28;20038;-69
2023/10/27 10:19:09;;;;;;;7.35;6.07;;;;;;;;;;4998520;28;20038;-69
2023/10/27 10:21:38;;;;;;;7.03;5.05;;;;;;;;;;5015489;28;20048;-69
2023/10/27 10:24:05;;;;;;;6.22;5.35;;;;;;;;;;5015415;28;20056;-69
2023/10/27 10:26:49;;;;;;;6.80;5.85;;;;;;;;;;5015744;28;20042;-69
2023/10/27 10:29:32;;;;;;;5.97;5.45;;;;;;;;;;4997876;28;20398;-69
2023/10/27 10:32:38;;;;;;;6.82;6.22;;;;;;;;;;5015674;28;20034;-69
2023/10/27 10:35:23;;;;;;;8.25;5.97;;;;;;;;;;4915695;29;20045;-69
2023/10/27 10:37:52;;;;;;;6.50;5.90;;;;;;;;;;4916363;29;20051;-70
2023/10/27 10:40:26;;;;;;;6.13;5.53;;;;;;;;;;4962074;28;20056;-68
2023/10/27 10:43:10;;;;;;;7.18;5.88;;;;;;;;;;5014191;28;20496;-68
2023/10/27 10:45:45;;;;;;;6.32;5.43;;;;;;;;;;5014618;28;20030;-68
2023/10/27 10:48:11;;;;;;;6.90;6.22;;;;;;;;;;5014396;28;20469;-69
2023/10/27 10:50:36;;;;;;;7.43;6.03;;;;;;;;;;5014110;28;20021;-69
2023/10/27 10:53:11;;;;;;;6.20;5.60;;;;;;;;;;5014208;28;20014;-68
2023/10/27 10:55:36;;;;;;;4.95;4.55;;;;;;;;;;5014566;28;20504;-68
2023/10/27 10:58:02;;;;;;;5.45;4.22;;;;;;;;;;5014689;28;20043;-69
2023/10/27 11:00:36;;;;;;;5.45;4.70;;;;;;;;;;5014107;28;20037;-69
2023/10/27 11:03:09;;;;;;;4.80;4.40;;;;;;;;;;5014518;28;20109;-69
2023/10/27 11:05:34;;;;;;;5.18;4.68;;;;;;;;;;4993660;28;20030;-69
2023/10/27 11:08:00;;;;;;;5.85;5.40;;;;;;;;;;5014326;28;20041;-69
2023/10/27 11:10:26;;;;;;;6.00;5.50;;;;;;;;;;5014647;28;20116;-68
2023/10/27 11:12:52;;;;;;;6.78;5.40;;;;;;;;;;4997980;28;20120;-68
2023/10/27 11:15:36;;;;;;;6.32;5.72;;;;;;;;;;5014659;28;20354;-69
2023/10/27 11:18:09;;;;;;;7.15;4.80;;;;;;;;;;5015061;28;20035;-69
2023/10/27 11:20:35;;;;;;;5.65;5.10;;;;;;;;;;5015811;28;20034;-68
2023/10/27 11:23:14;;;;;;;6.47;5.60;;;;;;;;;;5015060;28;20038;-68
2023/10/27 11:25:41;;;;;;;9.63;5.68;;;;;;;;;;5014250;28;20492;-68
2023/10/27 11:28:29;;;;;;;5.43;4.95;;;;;;;;;;4997695;28;20109;-68
2023/10/27 11:31:19;;;;;;;5.30;4.80;;;;;;;;;;5015478;28;20040;-68
2023/10/27 11:34:00;;;;;;;4.80;4.40;;;;;;;;;;4997530;28;20495;-68
2023/10/27 11:36:42;;;;;;;5.03;4.55;;;;;;;;;;5015252;28;20040;-68
2023/10/27 11:39:15;;;;;;;5.50;5.00;;;;;;;;;;5015051;28;20393;-69
2023/10/27 11:41:42;;;;;;;5.60;4.95;;;;;;;;;;5014810;28;20065;-68
2023/10/27 11:44:08;;;;;;;6.40;5.32;;;;;;;;;;5014897;28;20521;-68
2023/10/27 11:46:34;;;;;;;6.32;5.72;;;;;;;;;;4997159;28;20117;-68
2023/10/27 11:49:00;;;;;;;5.88;5.35;;;;;;;;;;4997711;28;20030;-68
2023/10/27 11:51:26;;;;;;;6.95;6.07;;;;;;;;;;5015151;28;20097;-68
2023/10/27 11:53:51;;;;;;;7.00;5.70;;;;;;;;;;5015197;28;20038;-68
2023/10/27 11:56:17;;;;;;;6.03;5.43;;;;;;;;;;5015018;28;20030;-68
2023/10/27 11:58:43;;;;;;;5.80;5.40;;;;;;;;;;5015398;28;20041;-68
2023/10/27 12:01:08;;;;;;;5.93;5.13;;;;;;;;;;5014610;28;20030;-69
2023/10/27 12:03:34;;;;;;;5.95;5.45;;;;;;;;;;5014838;28;20034;-69
2023/10/27 12:05:59;;;;;;;6.22;5.03;;;;;;;;;;5014583;28;20038;-69
2023/10/27 12:08:25;;;;;;;4.45;4.05;;;;;;;;;;5014506;28;20053;-69
2023/10/27 12:10:54;;;;;;;4.20;3.90;;;;;;;;;;4996980;28;20034;-69
2023/10/27 12:13:20;;;;;;;5.40;4.40;;;;;;;;;;5014023;28;20493;-69
2023/10/27 12:15:47;;;;;;;5.03;4.30;;;;;;;;;;4995623;28;20029;-69
2023/10/27 12:18:12;;;;;;;5.95;4.70;;;;;;;;;;5013866;28;20026;-69
2023/10/27 12:20:38;;;;;;;12.43;6.45;;;;;;;;;;5013696;28;20426;-69
2023/10/27 12:23:05;;;;;;;8.95;7.20;;;;;;;;;;5013635;28;20485;-68
2023/10/27 12:25:31;;;;;;;12.25;8.65;;;;;;;;;;5013948;28;20030;-67
2023/10/27 12:27:57;;;;;;;22.98;13.27;;;;;;;;;;4996563;28;20021;-67
2023/10/27 12:30:23;;;;;;;7.63;5.75;;;;;;;;;;4996300;28;20033;-67
2023/10/27 12:32:50;;;;;;;22.42;12.63;;;;;;;;;;5014159;28;20053;-66
2023/10/27 12:35:16;;;;;;;62.05;35.15;;;;;;;;;;5013609;28;20052;-66
2023/10/27 12:37:42;;;;;;;48.25;22.95;;;;;;;;;;5012855;28;20076;-66
2023/10/27 12:40:08;;;;;;;50.08;24.08;;;;;;;;;;5013392;28;20034;-66
2023/10/27 12:42:34;;;;;;;115.30;51.90;;;;;;;;;;5012381;28;20084;-66
2023/10/27 12:45:00;;;;;;;22.42;13.15;;;;;;;;;;5012665;28;20025;-66
2023/10/27 12:47:25;;;;;;;89.13;47.75;;;;;;;;;;4994414;28;20041;-66
2023/10/27 12:49:51;;;;;;;46.38;25.70;;;;;;;;;;5012926;28;20014;-66
2023/10/27 12:52:16;;;;;;;29.27;18.73;;;;;;;;;;5012712;28;20014;-66
2023/10/27 12:54:42;;;;;;;50.83;36.67;;;;;;;;;;5013041;28;20128;-67
2023/10/27 12:57:08;;;;;;;55.00;41.65;;;;;;;;;;5013337;28;20022;-70
2023/10/27 12:59:33;;;;;;;70.18;55.15;;;;;;;;;;5013595;28;20072;-71
2023/10/27 13:01:59;;;;;;;40.88;35.35;;;;;;;;;;4994897;28;20433;-71
2023/10/27 13:04:24;;;;;;;35.95;30.75;;;;;;;;;;5013945;28;20037;-71
2023/10/27 13:06:50;;;;;;;28.58;21.65;;;;;;;;;;5012307;28;20477;-71
2023/10/27 13:09:16;;;;;;;34.78;22.85;;;;;;;;;;4994594;28;20022;-71
2023/10/27 13:11:42;;;;;;;31.45;23.73;;;;;;;;;;4994121;28;20022;-71
2023/10/27 13:14:08;;;;;;;47.35;31.55;;;;;;;;;;5011743;28;20396;-71
2023/10/27 13:16:33;;;;;;;36.95;24.30;;;;;;;;;;4994032;28;20088;-70
2023/10/27 13:19:00;;;;;;;31.45;23.65;;;;;;;;;;4994259;28;20476;-70
2023/10/27 13:21:25;;;;;;;27.75;21.08;;;;;;;;;;5013565;28;20029;-70
2023/10/27 13:23:51;;;;;;;65.63;41.03;;;;;;;;;;5012817;28;20042;-70
2023/10/27 13:26:16;;;;;;;70.50;42.72;;;;;;;;;;4995104;28;20018;-70
2023/10/27 13:28:41;;;;;;;96.13;47.22;;;;;;;;;;5013260;28;20037;-70
2023/10/27 13:31:07;;;;;;;76.93;38.15;;;;;;;;;;5013176;28;20049;-70
2023/10/27 13:33:33;;;;;;;79.85;32.08;;;;;;;;;;5013225;28;20053;-70
2023/10/27 13:36:02;;;;;;;54.90;25.08;;;;;;;;;;4995726;28;20045;-70
2023/10/27 13:38:27;;;;;;;114.65;50.10;;;;;;;;;;5013250;28;20028;-70
2023/10/27 13:40:53;;;;;;;118.60;48.15;;;;;;;;;;5013252;28;20117;-70
2023/10/27 13:43:21;;;;;;;129.95;52.10;;;;;;;;;;5012897;28;20033;-70
2023/10/27 13:45:46;;;;;;;40.53;17.80;;;;;;;;;;5012572;28;20371;-70
2023/10/27 13:48:12;;;;;;;19.10;11.30;;;;;;;;;;5013122;28;20045;-70
2023/10/27 13:50:37;;;;;;;7.20;6.00;;;;;;;;;;5013002;28;20030;-70
2023/10/27 13:53:03;;;;;;;42.22;23.00;;;;;;;;;;5012783;28;20030;-70
2023/10/27 13:55:28;;;;;;;42.80;21.58;;;;;;;;;;5012762;28;20366;-70
2023/10/27 13:57:55;;;;;;;73.75;37.65;;;;;;;;;;4995560;28;20022;-70
2023/10/27 14:00:26;;;;;;;56.20;25.85;;;;;;;;;;4995446;28;20022;-70
2023/10/27 14:02:52;;;;;;;33.55;17.83;;;;;;;;;;5012971;28;20030;-68
2023/10/27 14:05:17;;;;;;;45.00;24.33;;;;;;;;;;4995205;28;20382;-70
2023/10/27 14:07:43;;;;;;;26.77;17.15;;;;;;;;;;5012175;28;20034;-70
2023/10/27 14:10:09;;;;;;;28.02;18.50;;;;;;;;;;5014491;28;20026;-68
2023/10/27 14:12:34;;;;;;;17.52;11.70;;;;;;;;;;5015874;28;20088;-68
2023/10/27 14:15:01;;;;;;;8.32;6.53;;;;;;;;;;5016588;28;20026;-68
2023/10/27 14:17:27;;;;;;;12.60;8.48;;;;;;;;;;4998097;28;20396;-68
2023/10/27 14:19:52;;;;;;;16.95;10.82;;;;;;;;;;5015988;28;20034;-69
2023/10/27 14:22:18;;;;;;;15.40;9.70;;;;;;;;;;5014542;28;20477;-70
2023/10/27 14:24:43;;;;;;;7.32;5.28;;;;;;;;;;5015585;28;20026;-70
2023/10/27 14:27:09;;;;;;;4.13;3.75;;;;;;;;;;5015619;28;20401;-70
2023/10/27 14:29:34;;;;;;;3.65;3.38;;;;;;;;;;5015132;28;20022;-70